Elizabeth — 9V8794 — position and weather

sailwx.info

Track history (hours):
 
Tides and Currents Weather Stations Pressure Air Temp Water Temp Dewpoint Dewpoint Depression Visibility Wind Speed Wind Dir Waves Ship Positions

Elizabeth

Last reported at 2014-Dec-23 23:25 UTC. Time now 2015-Jan-31 13:12 UTC.
Position N 29°22' W 094°48'.
Warning: this ship's position is 38 days out of date.

Length 190 m; draft 12 m.

Type: Cargo ship. MMSI: 566073000.

Date/timePositionNaut miles runAvg speedWind from/ knotsBaromVisibWave heightAir tempDewpointWater temp
2014-Dec-23 23:25N 29°22' W 094°48'9 9.9
2014-Dec-23 22:33N 29°30' W 094°52'9 9.4
2014-Dec-23 21:34N 29°38' W 094°58'7 6.6
2014-Dec-23 20:33N 29°43' W 095°01'5 4.6
2014-Dec-23 19:34N 29°45' W 095°06'2 2.1
2014-Dec-23 18:33N 29°44' W 095°09'0 0.0
2014-Dec-23 17:32N 29°44' W 095°09'0 0.0
2014-Dec-23 16:32N 29°44' W 095°09'0 0.0
2014-Dec-23 15:32N 29°44' W 095°09'0 0.0
2014-Dec-23 14:32N 29°44' W 095°09'0 0.0
2014-Dec-23 13:32N 29°44' W 095°09'0 0.0
2014-Dec-23 12:32N 29°44' W 095°09'0 0.0
2014-Dec-23 11:32N 29°44' W 095°09'0 0.0
2014-Dec-23 10:32N 29°44' W 095°09'0 0.0
2014-Dec-23 09:32N 29°44' W 095°09'0 0.0
2014-Dec-23 08:32N 29°44' W 095°09'0 0.0
2014-Dec-23 07:32N 29°44' W 095°09'0 0.0
2014-Dec-23 06:32N 29°44' W 095°09'0 0.0
2014-Dec-23 05:32N 29°44' W 095°09'0 0.0
2014-Dec-23 04:32N 29°44' W 095°09'0 0.0
2014-Dec-23 03:32N 29°44' W 095°09'0 0.0
2014-Dec-23 02:32N 29°44' W 095°09'0 0.0
2014-Dec-23 01:32N 29°44' W 095°09'0 0.0
2014-Dec-23 00:32N 29°44' W 095°09'0 0.0
2014-Dec-22 23:32N 29°44' W 095°09'0 0.0
2014-Dec-22 22:32N 29°44' W 095°09'0 0.0
2014-Dec-22 21:29N 29°44' W 095°09'0 0.0
2014-Dec-22 20:32N 29°44' W 095°09'0 0.0
2014-Dec-22 19:32N 29°44' W 095°09'0 0.0
2014-Dec-22 18:32N 29°44' W 095°09'0 0.0
2014-Dec-22 17:32N 29°44' W 095°09'0 0.0
2014-Dec-22 16:32N 29°44' W 095°09'0 0.0
2014-Dec-22 15:32N 29°44' W 095°09'0 0.0
2014-Dec-22 14:32N 29°44' W 095°09'0 0.0
2014-Dec-22 13:32N 29°44' W 095°09'0 0.0
2014-Dec-22 12:32N 29°44' W 095°09'0 0.0
2014-Dec-22 11:32N 29°44' W 095°09'2 2.1
2014-Dec-22 10:33N 29°45' W 095°06'6 6.5
2014-Dec-22 09:33N 29°42' W 094°60'1312.6
2014-Dec-22 08:33N 29°31' W 094°53'  
2014-Dec-17 15:32N 28°57' W 094°31'2 1.6
2014-Dec-17 14:30N 28°56' W 094°29'  
2014-Dec-14 15:26N 29°19' W 094°49'0 0.0
2014-Dec-14 13:32N 29°19' W 094°49'  
Track history (hours):
 
Tides and Currents Weather Stations Pressure Air Temp Water Temp Dewpoint Dewpoint Depression Visibility Wind Speed Wind Dir Waves Ship Positions

Elizabeth

Last reported at 2014-Dec-23 23:25 UTC. Time now 2015-Jan-31 13:12 UTC.
Position N 29°22' W 094°48'.
Warning: this ship's position is 38 days out of date.

Length 190 m; draft 12 m.

Type: Cargo ship. MMSI: 566073000.

Date/timePositionNaut miles runAvg speedWind from/ knotsBaromVisibWave heightAir tempDewpointWater temp
2014-Dec-23 23:25N 29°22' W 094°48'9 9.9
2014-Dec-23 22:33N 29°30' W 094°52'9 9.4
2014-Dec-23 21:34N 29°38' W 094°58'7 6.6
2014-Dec-23 20:33N 29°43' W 095°01'5 4.6
2014-Dec-23 19:34N 29°45' W 095°06'2 2.1
2014-Dec-23 18:33N 29°44' W 095°09'0 0.0
2014-Dec-23 17:32N 29°44' W 095°09'0 0.0
2014-Dec-23 16:32N 29°44' W 095°09'0 0.0
2014-Dec-23 15:32N 29°44' W 095°09'0 0.0
2014-Dec-23 14:32N 29°44' W 095°09'0 0.0
2014-Dec-23 13:32N 29°44' W 095°09'0 0.0
2014-Dec-23 12:32N 29°44' W 095°09'0 0.0
2014-Dec-23 11:32N 29°44' W 095°09'0 0.0
2014-Dec-23 10:32N 29°44' W 095°09'0 0.0
2014-Dec-23 09:32N 29°44' W 095°09'0 0.0
2014-Dec-23 08:32N 29°44' W 095°09'0 0.0
2014-Dec-23 07:32N 29°44' W 095°09'0 0.0
2014-Dec-23 06:32N 29°44' W 095°09'0 0.0
2014-Dec-23 05:32N 29°44' W 095°09'0 0.0
2014-Dec-23 04:32N 29°44' W 095°09'0 0.0
2014-Dec-23 03:32N 29°44' W 095°09'0 0.0
2014-Dec-23 02:32N 29°44' W 095°09'0 0.0
2014-Dec-23 01:32N 29°44' W 095°09'0 0.0
2014-Dec-23 00:32N 29°44' W 095°09'0 0.0
2014-Dec-22 23:32N 29°44' W 095°09'0 0.0
2014-Dec-22 22:32N 29°44' W 095°09'0 0.0
2014-Dec-22 21:29N 29°44' W 095°09'0 0.0
2014-Dec-22 20:32N 29°44' W 095°09'0 0.0
2014-Dec-22 19:32N 29°44' W 095°09'0 0.0
2014-Dec-22 18:32N 29°44' W 095°09'0 0.0
2014-Dec-22 17:32N 29°44' W 095°09'0 0.0
2014-Dec-22 16:32N 29°44' W 095°09'0 0.0
2014-Dec-22 15:32N 29°44' W 095°09'0 0.0
2014-Dec-22 14:32N 29°44' W 095°09'0 0.0
2014-Dec-22 13:32N 29°44' W 095°09'0 0.0
2014-Dec-22 12:32N 29°44' W 095°09'0 0.0
2014-Dec-22 11:32N 29°44' W 095°09'2 2.1
2014-Dec-22 10:33N 29°45' W 095°06'6 6.5
2014-Dec-22 09:33N 29°42' W 094°60'1312.6
2014-Dec-22 08:33N 29°31' W 094°53'  
2014-Dec-17 15:32N 28°57' W 094°31'2 1.6
2014-Dec-17 14:30N 28°56' W 094°29'  
2014-Dec-14 15:26N 29°19' W 094°49'0 0.0
2014-Dec-14 13:32N 29°19' W 094°49'  

Dump ship's entire track history